Imst, Austria
Current Conditions -  °F | °C
As of 3:50 AM on Saturday 01 Nov 2014 (Local Time) from LOWI Reporting Station
Few Clouds Few Clouds  
Wind Chill: 37°   Ceiling: Unl
Heat Index: 37°   Visibility: 5mi
Dew Point: 37°   Wind: 2mph
Humidity: 100%   Direction: 250°WSW
Pressure: 30.33"   Gusts: NA
Location:  47.25°N, 10.73°E
Report Text: LOWI 010150Z AUTO 25002KT 8000 FEW240 03/03 Q1027
Loading
Personal Weather Stations






























Interactive Weather Map
Tropical Storm Tracking
New forecast layout! Learn more

10-Day Weather Forecast

Advertisements
Track Severe Weather on mobile